Indian Springs, Nevada Weather observations

Data are for observation ending at time listed.
 Day   Time    Ave.   Ave.  Ave.  Vector   Max.   Stn.    Total    Solar   Ave.  
  of    of     Air    Rel.  Wind   Wind    Wind   Baro.  Precip.   Rad.    Soil  
Year   Day     Temp.  Hum.  Speed  Dir.    Gust   Pres.                    Temp. 
2014   (PST)    F      %     mph   deg.    mph     mb.     in.     W/m2     F   
------------------------------------------------------------------------------
 210   22:20   82.3    40    2.0   275      3.9   908.3    0.00       0    91.5
 210   22:30   81.8    42    2.0   281      4.0   908.1    0.00       0    91.2
 210   22:40   81.7    41    2.2   275      5.3   908.1    0.00       0    91.0
 210   22:50   81.1    43    2.1   282      4.2   908.1    0.00       0    90.8
 210   23:00   80.7    44    1.9   283      3.9   908.0    0.00       0    90.6
 210   23:10   80.3    44    2.0   289      4.9   907.9    0.00       0    90.5
 210   23:20   80.1    45    2.3   287      4.6   907.8    0.00       0    90.3
 210   23:30   79.7    46    2.0   278      4.1   907.7    0.00       0    90.1
 210   23:40   79.6    46    1.1    50      2.6   907.7    0.00       0    89.9
 210   23:50   79.4    45    1.7   282      4.7   907.8    0.00       0    89.7
 211    0:00   80.1    43    2.3   258      4.6   907.7    0.00       0    89.6
 211    0:10   80.0    44    1.9   254      4.6   907.8    0.00       0    89.4
 211    0:20   79.8    44    2.1   244      4.2   907.8    0.00       0    89.2
 211    0:30   80.1    43    1.9   260      3.8   907.8    0.00       0    89.0
 211    0:40   79.7    44    1.4   284      2.7   907.8    0.00       0    88.9
 211    0:50   79.5    44    0.8   265      2.5   907.7    0.00       0    88.7
 211    1:00   78.4    45    0.4     0      1.8   907.8    0.00       0    88.6
 211    1:10   77.9    47    1.0   225      1.8   907.7    0.00       0    88.4
 211    1:20   78.0    45    1.0   262      2.0   907.8    0.00       0    88.2
 211    1:30   77.7    46    0.9   231      2.2   907.8    0.00       0    88.1
 211    1:40   77.2    46    0.7   220      2.6   907.7    0.00       0    87.9
 211    1:50   76.9    46    1.4   244      3.0   907.7    0.00       0    87.8
 211    2:00   77.3    45    2.0   242      3.4   907.6    0.00       0    87.6
 211    2:10   76.4    47    2.6   237      4.2   907.6    0.00       0    87.5
 211    2:20   76.7    46    2.0   244      3.3   907.6    0.00       0    87.3
 211    2:30   77.5    44    1.2   249      2.6   907.5    0.00       0    87.2
 211    2:40   76.5    47    1.1   196      2.4   907.5    0.00       0    87.0
 211    2:50   77.5    44    1.5   215      2.3   907.4    0.00       0    86.9
 211    3:00   78.1    42    1.3   210      3.1   907.4    0.00       0    86.7
 211    3:10   76.7    46    1.3    57      2.5   907.3    0.00       0    86.6
 211    3:20   75.2    49    0.9    44      2.3   907.5    0.00       0    86.5
 211    3:30   74.7    50    0.2    10      1.2   907.4    0.00       0    86.3
 211    3:40   74.1    52    0.2   142      1.2   907.3    0.00       0    86.2
 211    3:50   74.1    54    0.4   243      2.6   907.2    0.00       0    86.1
 211    4:00   74.6    53    0.9   187      2.3   907.2    0.00       0    86.0
 211    4:10   73.1    54    0.5   106      1.8   907.3    0.00       0    85.8
 211    4:20   72.4    56    0.4    54      2.3   907.4    0.00       0    85.7
 211    4:30   72.0    57    0.0    48      0.7   907.5    0.00       0    85.6
 211    4:40   71.8    58    0.3    92      1.1   907.5    0.00       0    85.5
 211    4:50   72.1    59    0.3   190      1.2   907.5    0.00       3    85.3
 211    5:00   72.6    58    0.6   197      1.5   907.5    0.00       7    85.2
 211    5:10   73.0    58    0.7   197      1.8   907.6    0.00      19    85.1
 211    5:20   74.4    53    1.3   240      2.3   907.8    0.00      37    84.9
 211    5:30   75.2    50    2.0   230      3.5   908.0    0.00      62    84.8
 211    5:40   75.7    48    2.1   244      3.3   908.1    0.00      95    84.6
 211    5:50   77.9    44    1.2   256      2.3   908.3    0.00     126    84.5
 211    6:00   79.3    42    0.7   279      2.5   908.6    0.00     155    84.3
 211    6:10   81.4    40    0.7   327      1.8   908.8    0.00     187    84.3
 211    6:20   81.7    39    1.2   309      2.6   909.1    0.00     218    84.2
 211    6:30   81.4    38    1.1   299      2.0   909.3    0.00     250    84.1
 211    6:40   82.6    37    0.9   314      2.3   909.5    0.00     284    84.1
 211    6:50   83.6    35    1.4   315      2.9   909.8    0.00     317    84.2
 211    7:00   84.1    34    0.9     5      2.7   910.0    0.00     356    84.2
 211    7:10   84.4    33    1.0   325      3.3   910.2    0.00     385    84.3
 211    7:20   84.5    33    1.2   306      2.7   910.3    0.00     416    84.5
 211    7:30   84.1    32    1.9   292      3.7   910.4    0.00     448    84.6
 211    7:40   84.6    32    1.7   312      3.9   910.5    0.00     483    84.8
 211    7:50   86.1    30    1.2    18      3.4   910.7    0.00     521    85.0
 211    8:00   86.1    30    1.6   328      3.4   910.7    0.00     549    85.2
 211    8:10   86.7    30    1.6   349      3.1   910.8    0.00     585    85.5
 211    8:20   86.9    29    1.6   346      3.3   910.8    0.00     615    85.7
 211    8:30   87.4    29    1.6   330      3.4   910.9    0.00     644    86.0
 211    8:40   88.5    28    1.3    41      3.4   911.0    0.00     674    86.4
 211    8:50   89.4    28    1.8    40      4.6   911.2    0.00     702    86.7
 211    9:00   89.6    27    1.1   324      3.6   911.2    0.00     723    87.2
 211    9:10   89.5    27    1.3   274      4.5   911.3    0.00     745    87.5
 211    9:20   90.7    26    1.4    59      3.8   911.4    0.00     774    88.0
 211    9:30   91.3    24    2.1     3      5.4   911.5    0.00     796    88.4
 211    9:40   91.2    24    1.6   358      3.5   911.6    0.00     817    88.9
 211    9:50   92.0    23    1.9    33      5.0   911.6    0.00     837    89.4
 211   10:00   91.1    23    2.3   297      5.3   911.7    0.00     855    89.9
 211   10:10   92.3    22    1.7    23      5.0   911.7    0.00     864    90.5
 211   10:20   93.1    22    1.7   318      5.3   911.7    0.00     887    91.0
 211   10:30   92.9    22    3.2    60      8.8   911.6    0.00     896    91.5
 211   10:40   93.0    21    3.0    56      8.1   911.5    0.00     917    92.1
 211   10:50   93.7    21    2.0    26      7.2   911.5    0.00     906    92.6
 211   11:00   94.2    21    1.6   355      4.2   911.5    0.00     928    93.2
 211   11:10   94.5    20    1.6   342      4.0   911.6    0.00     928    93.8
 211   11:20   94.2    20    2.6   322      6.3   911.4    0.00     947    94.3
 211   11:30   93.7    20    3.0   294      5.6   911.4    0.00     953    94.9
 211   11:40   93.8    20    2.2   202      4.8   911.3    0.00     954    95.4
 211   11:50   95.4    19    2.5    62      6.6   911.1    0.00     958    96.0
 211   12:00   95.7    19    3.4    45      8.6   911.1    0.00     960    96.5
 211   12:10   95.6    19    2.6    21      7.1   910.9    0.00     956    97.1
 211   12:20   96.7    18    1.6   341      5.8   910.7    0.00     957    97.6
 211   12:30   95.8    19    3.0   289      7.5   910.7    0.00     953    98.1
 211   12:40   95.5    19    3.1   270      9.1   910.6    0.00     949    98.5
 211   12:50   95.5    18    3.5   208      6.7   910.4    0.00     940    99.1
 211   13:00   96.1    18    3.0   195      9.6   910.1    0.00     906    99.5
 211   13:10   95.8    18    3.8   235      9.4   910.0    0.00     900    99.9
 211   13:20   96.6    18    3.3   274      6.9   909.9    0.00     911    100.5
 211   13:30   97.2    17    2.1   319      5.4   909.7    0.00     871    100.9
 211   13:40   97.1    16    1.6   202      4.0   909.7    0.00     595    101.3
 211   13:50   97.6    15    2.0   164      4.1   909.6    0.00     256    101.7
 211   14:00   98.3    15    1.8    92      4.3   909.4    0.00     692    102.1
 211   14:10   98.9    14    1.8   102      5.5   909.3    0.00     810    102.4
 211   14:20   98.6    14    2.4   161      5.6   909.2    0.00     761    102.7
 211   14:30   99.0    15    2.2   137      6.7   909.2    0.00     753    102.9
 211   14:40   99.2    14    2.4   109      5.8   909.0    0.00     770    103.1
 211   14:50   99.7    14    2.8    77      6.6   908.9    0.00     722    103.3
 211   15:00   98.8    14    2.5    79      7.4   908.8    0.00     587    103.5
 211   15:10   99.8    13    1.6   154      4.3   908.7    0.00     703    103.7
 211   15:20   99.4    13    2.5    77      6.7   908.6    0.00     596    103.9
 211   15:30  100.2    14    1.6   168      3.3   908.6    0.00     606    104.1
 211   15:40  101.0    14    1.7   281      6.7   908.4    0.00     526    104.3
 211   15:50  100.0    14    2.6    48      7.0   908.4    0.00     575    104.4
 211   16:00  100.5    14    2.4    22      6.0   908.4    0.00     526    104.6
 211   16:10   99.5    14    2.7   328      6.1   908.3    0.00     293    104.7
 211   16:20   98.8    14    1.7    18      3.9   908.1    0.00     173    104.8
 211   16:30   98.3    14    1.7   335      4.7   908.0    0.00      89    104.9
 211   16:40   97.4    15    3.3   254     13.7   908.1    0.00      37    104.8
 211   16:50   93.8    21   11.1   247     20.0   908.2    0.00      20    104.8
 211   17:00   89.8    28   11.7   248     19.3   908.6    0.00      21    104.7
 211   17:10   86.5    36    8.1   258     16.7   908.5    0.00      37    104.6
 211   17:20   86.3    32    6.7   270     14.1   908.0    0.00      43    104.4
 211   17:30   87.8    28    5.5   260     12.3   907.8    0.00      45    104.0
 211   17:40   88.5    26    9.7   244     15.4   907.7    0.00      39    103.5
 211   17:50   88.4    27    5.1   263     13.7   908.0    0.00      26    103.1
 211   18:00   88.2    26    5.5   281     13.4   908.1    0.00      29    102.7
 211   18:10   88.0    26    3.8   269      8.6   908.1    0.00      35    102.2
 211   18:20   87.8    26    4.1   267      8.6   908.2    0.00      31    101.7
 211   18:30   88.3    25    4.2   277     11.6   908.2    0.00      36    101.3
 211   18:40   88.4    24    3.6   292      9.5   908.3    0.00      15    100.9
 211   18:50   88.0    25    3.6   272      9.5   908.4    0.00       5    100.5
 211   19:00   87.5    26    1.8   270      4.1   908.5    0.00       0    100.1
 211   19:10   87.5    25    1.4   282      3.6   908.7    0.00       0    99.8
 211   19:20   87.8    26    1.0   252      2.4   908.8    0.00       0    99.4
 211   19:30   87.8    27    2.1   215      4.5   908.9    0.00       0    99.1
 211   19:40   88.2    26    2.3   245      5.2   909.0    0.00       0    98.8
 211   19:50   88.2    26    1.5   260      3.2   909.1    0.00       0    98.5
 211   20:00   87.8    27    2.2   263      5.7   909.2    0.00       0    98.2
 211   20:10   87.5    27    2.0   279      4.6   909.2    0.00       0    97.9
 211   20:20   87.2    26    1.8   320      5.2   909.1    0.00       0    97.7
 211   20:30   87.3    25    1.3   360      4.6   909.1    0.00       0    97.4
 211   20:40   86.8    24    2.0     3      5.9   909.1    0.00       0    97.2
 211   20:50   86.4    25    1.7     1      4.1   909.2    0.00       0    97.0
 211   21:00   86.1    25    3.0    30      8.1   909.2    0.00       0    96.8
 211   21:10   85.9    26    3.2    27      9.2   909.1    0.00       0    96.5
 211   21:20   85.6    26    2.8    25      7.4   909.1    0.00       0    96.3
 211   21:30   85.2    26    3.1    27      8.0   909.0    0.00       0    96.1
 211   21:40   84.3    27    1.5     8      3.5   909.0    0.00       0    95.8
 211   21:50   84.0    27    1.2     1      2.6   909.0    0.00       0    95.6
 211   22:00   83.8    28    1.3   224      2.6   908.9    0.00       0    95.4
 211   22:10   83.1    29    0.1   212      0.9   908.8    0.00       0    95.1

Return to Indian Springs, Nevada graphs page.


Western Regional Climate Center,wrcc@dri.edu